createdAt,value
2016-07-09T00:00:25.843Z,0
2016-07-09T00:01:25.822Z,0
2016-07-09T00:02:25.814Z,0
2016-07-09T00:03:25.781Z,0
2016-07-09T00:04:25.771Z,0
2016-07-09T00:05:25.753Z,0
2016-07-09T00:06:25.728Z,0
2016-07-09T00:07:25.710Z,0
2016-07-09T00:08:25.696Z,0
2016-07-09T00:09:25.676Z,0
2016-07-09T00:10:25.653Z,0
2016-07-09T00:11:25.639Z,0
2016-07-09T00:12:25.623Z,0
2016-07-09T00:13:25.598Z,0
2016-07-09T00:14:25.584Z,0
2016-07-09T00:15:25.575Z,0
2016-07-09T00:16:25.545Z,0
2016-07-09T00:17:25.535Z,0
2016-07-09T00:18:25.511Z,0
2016-07-09T00:19:25.493Z,0
2016-07-09T00:20:25.472Z,0
2016-07-09T00:21:25.449Z,0
2016-07-09T00:22:25.433Z,0
2016-07-09T00:23:25.429Z,0
2016-07-09T00:24:25.395Z,0
2016-07-09T00:25:25.380Z,0
2016-07-09T00:26:25.363Z,0
2016-07-09T00:27:25.345Z,0
2016-07-09T00:28:25.326Z,0
2016-07-09T00:29:25.307Z,0
2016-07-09T00:30:25.286Z,0
2016-07-09T00:31:25.266Z,0
2016-07-09T00:32:25.248Z,0
2016-07-09T00:33:25.226Z,0
2016-07-09T00:34:25.212Z,0
2016-07-09T00:35:25.191Z,0
2016-07-09T00:36:25.171Z,0
2016-07-09T00:37:25.172Z,0
2016-07-09T00:38:25.136Z,0
2016-07-09T00:39:25.115Z,0
2016-07-09T00:40:25.112Z,0
2016-07-09T00:41:25.078Z,0
2016-07-09T00:42:25.661Z,0
2016-07-09T00:43:25.045Z,0
2016-07-09T00:44:25.024Z,0
2016-07-09T00:45:25.004Z,0
2016-07-09T00:46:24.988Z,0
2016-07-09T00:47:24.968Z,0
2016-07-09T00:48:24.948Z,0
2016-07-09T00:49:24.930Z,0
2016-07-09T00:50:24.913Z,0
2016-07-09T00:51:24.898Z,0
2016-07-09T00:52:24.881Z,0
2016-07-09T00:53:24.848Z,0
2016-07-09T00:54:24.831Z,0
2016-07-09T00:55:24.816Z,0
2016-07-09T00:56:24.798Z,0
2016-07-09T00:57:24.774Z,0
2016-07-09T00:58:24.756Z,0
2016-07-09T00:59:24.733Z,0
2016-07-09T01:00:24.719Z,0
2016-07-09T01:01:24.695Z,0
2016-07-09T01:02:24.676Z,0
2016-07-09T01:03:24.661Z,0
2016-07-09T01:04:24.638Z,0
2016-07-09T01:05:24.626Z,0
2016-07-09T01:06:24.601Z,0
2016-07-09T01:07:24.581Z,0
2016-07-09T01:08:24.562Z,0
2016-07-09T01:09:24.545Z,0
2016-07-09T01:10:24.523Z,0
2016-07-09T01:11:24.501Z,0
2016-07-09T01:12:24.486Z,0
2016-07-09T01:13:24.465Z,0
2016-07-09T01:14:24.444Z,0
2016-07-09T01:15:24.431Z,0
2016-07-09T01:16:24.414Z,0
2016-07-09T01:17:24.389Z,0
2016-07-09T01:18:24.369Z,0
2016-07-09T01:19:24.349Z,0
2016-07-09T01:20:24.325Z,0
2016-07-09T01:21:24.310Z,0
2016-07-09T01:22:24.290Z,0
2016-07-09T01:23:24.267Z,0
2016-07-09T01:24:24.252Z,0
2016-07-09T01:25:24.229Z,0
2016-07-09T01:26:24.209Z,0
2016-07-09T01:27:24.206Z,0
2016-07-09T01:28:24.177Z,0
2016-07-09T01:29:24.154Z,0
2016-07-09T01:30:24.136Z,0
2016-07-09T01:31:24.124Z,0
2016-07-09T01:32:24.093Z,0
2016-07-09T01:33:24.073Z,0
2016-07-09T01:34:24.063Z,0
2016-07-09T01:35:24.036Z,0
2016-07-09T01:36:24.014Z,0
2016-07-09T01:37:24.001Z,0
2016-07-09T01:38:23.979Z,0
2016-07-09T01:39:23.971Z,0
2016-07-09T01:40:23.943Z,0
2016-07-09T01:41:23.916Z,0
2016-07-09T01:42:23.901Z,0
2016-07-09T01:43:23.882Z,0
2016-07-09T01:44:23.866Z,0
2016-07-09T01:45:23.841Z,0
2016-07-09T01:46:23.820Z,0
2016-07-09T01:47:23.801Z,0
2016-07-09T01:48:23.782Z,0
2016-07-09T01:49:23.765Z,0
2016-07-09T01:50:23.745Z,0
2016-07-09T01:51:23.723Z,0
2016-07-09T01:52:23.699Z,0
2016-07-09T01:53:23.686Z,0
2016-07-09T01:54:23.667Z,0
2016-07-09T01:55:23.643Z,0
2016-07-09T01:56:23.627Z,0
2016-07-09T01:57:23.605Z,0
2016-07-09T01:58:23.584Z,0
2016-07-09T01:59:23.565Z,0
2016-07-09T02:00:23.551Z,0
2016-07-09T02:01:23.526Z,0
2016-07-09T02:02:23.509Z,0
2016-07-09T02:03:23.488Z,0
2016-07-09T02:04:23.469Z,0
2016-07-09T02:05:23.449Z,0
2016-07-09T02:06:23.430Z,0
2016-07-09T02:07:23.412Z,0
2016-07-09T02:08:23.386Z,0
2016-07-09T02:09:23.384Z,0
2016-07-09T02:10:23.352Z,0
2016-07-09T02:11:23.334Z,0
2016-07-09T02:12:23.317Z,0
2016-07-09T02:13:23.303Z,0
2016-07-09T02:14:23.272Z,0
2016-07-09T02:15:23.258Z,0
2016-07-09T02:16:23.236Z,0
2016-07-09T02:17:23.214Z,0
2016-07-09T02:18:23.198Z,0
2016-07-09T02:19:23.178Z,0
2016-07-09T02:20:23.159Z,0
2016-07-09T02:21:23.141Z,0
2016-07-09T02:22:23.125Z,0
2016-07-09T02:23:23.100Z,0
2016-07-09T02:24:23.080Z,0
2016-07-09T02:25:23.061Z,0
2016-07-09T02:26:23.045Z,0
2016-07-09T02:27:23.024Z,0
2016-07-09T02:28:23.004Z,0
2016-07-09T02:29:22.983Z,0
2016-07-09T02:30:22.963Z,0
2016-07-09T02:31:22.948Z,0
2016-07-09T02:32:22.935Z,0
2016-07-09T02:33:22.906Z,0
2016-07-09T02:34:22.897Z,0
2016-07-09T02:35:23.477Z,0
2016-07-09T02:36:22.852Z,0
2016-07-09T02:37:22.833Z,4
2016-07-09T02:38:22.814Z,4
2016-07-09T02:39:22.793Z,4
2016-07-09T02:40:22.774Z,0
2016-07-09T02:41:22.751Z,4
2016-07-09T02:42:22.730Z,4
2016-07-09T02:43:22.715Z,4
2016-07-09T02:44:22.699Z,4
2016-07-09T02:45:22.674Z,4
2016-07-09T02:46:22.655Z,8
2016-07-09T02:47:22.636Z,8
2016-07-09T02:48:22.616Z,4
2016-07-09T02:49:22.603Z,8
2016-07-09T02:50:22.590Z,12
2016-07-09T02:51:22.568Z,12
2016-07-09T02:52:22.538Z,12
2016-07-09T02:53:22.518Z,16
2016-07-09T02:54:22.503Z,16
2016-07-09T02:55:22.483Z,16
2016-07-09T02:56:22.463Z,20
2016-07-09T02:57:22.446Z,20
2016-07-09T02:58:22.426Z,24
2016-07-09T02:59:22.403Z,24
2016-07-09T03:00:22.388Z,28
2016-07-09T03:01:22.362Z,32
2016-07-09T03:02:22.343Z,32
2016-07-09T03:03:22.332Z,40
2016-07-09T03:04:22.311Z,44
2016-07-09T03:05:22.288Z,48
2016-07-09T03:06:22.269Z,48
2016-07-09T03:07:22.256Z,48
2016-07-09T03:08:22.225Z,48
2016-07-09T03:09:22.219Z,52
2016-07-09T03:10:22.190Z,60
2016-07-09T03:11:22.170Z,72
2016-07-09T03:12:22.148Z,84
2016-07-09T03:13:22.139Z,92
2016-07-09T03:14:22.113Z,100
2016-07-09T03:15:22.092Z,112
2016-07-09T03:16:22.075Z,128
2016-07-09T03:17:22.059Z,144
2016-07-09T03:18:22.038Z,160
2016-07-09T03:19:22.010Z,172
2016-07-09T03:20:21.999Z,184
2016-07-09T03:21:21.980Z,196
2016-07-09T03:22:21.958Z,208
2016-07-09T03:23:21.937Z,228
2016-07-09T03:24:21.925Z,248
2016-07-09T03:25:21.901Z,264
2016-07-09T03:26:21.879Z,260
2016-07-09T03:27:21.862Z,268
2016-07-09T03:28:21.844Z,320
2016-07-09T03:29:21.819Z,360
2016-07-09T03:30:21.805Z,372
2016-07-09T03:31:21.784Z,384
2016-07-09T03:32:21.763Z,436
2016-07-09T03:33:21.761Z,500
2016-07-09T03:34:21.727Z,544
2016-07-09T03:35:21.707Z,560
2016-07-09T03:36:21.689Z,588
2016-07-09T03:37:21.671Z,628
2016-07-09T03:38:21.661Z,644
2016-07-09T03:39:21.631Z,644
2016-07-09T03:40:21.616Z,632
2016-07-09T03:41:21.595Z,632
2016-07-09T03:42:22.174Z,644
2016-07-09T03:43:21.558Z,632
2016-07-09T03:44:21.543Z,572
2016-07-09T03:45:21.522Z,556
2016-07-09T03:46:21.495Z,620
2016-07-09T03:47:21.481Z,732
2016-07-09T03:48:21.463Z,860
2016-07-09T03:49:21.438Z,992
2016-07-09T03:50:21.422Z,1008
2016-07-09T03:51:21.414Z,1048
2016-07-09T03:52:21.379Z,1172
2016-07-09T03:53:21.364Z,1296
2016-07-09T03:54:21.347Z,1372
2016-07-09T03:55:21.326Z,1432
2016-07-09T03:56:21.309Z,1540
2016-07-09T03:57:21.291Z,1628
2016-07-09T03:58:21.269Z,1648
2016-07-09T03:59:21.253Z,1740
2016-07-09T04:00:21.227Z,1792
2016-07-09T04:01:21.213Z,1800
2016-07-09T04:02:21.201Z,1792
2016-07-09T04:03:21.184Z,1776
2016-07-09T04:04:21.166Z,1772
2016-07-09T04:05:21.155Z,1812
2016-07-09T04:06:21.119Z,1880
2016-07-09T04:07:21.103Z,1928
2016-07-09T04:08:21.083Z,1972
2016-07-09T04:09:21.063Z,2036
2016-07-09T04:10:21.045Z,2132
2016-07-09T04:11:21.025Z,2224
2016-07-09T04:12:21.005Z,2308
2016-07-09T04:13:20.993Z,2364
2016-07-09T04:14:20.972Z,2368
2016-07-09T04:15:20.946Z,2388
2016-07-09T04:16:20.934Z,2468
2016-07-09T04:17:20.918Z,2548
2016-07-09T04:18:20.892Z,2592
2016-07-09T04:19:20.878Z,2616
2016-07-09T04:20:20.857Z,2592
2016-07-09T04:21:20.864Z,2568
2016-07-09T04:22:20.822Z,2584
2016-07-09T04:23:20.802Z,2640
2016-07-09T04:24:20.783Z,2740
2016-07-09T04:25:20.769Z,2892
2016-07-09T04:26:20.741Z,3088
2016-07-09T04:27:20.727Z,3340
2016-07-09T04:28:20.708Z,3552
2016-07-09T04:29:20.686Z,3756
2016-07-09T04:30:20.675Z,4044
2016-07-09T04:31:20.652Z,4228
2016-07-09T04:32:20.632Z,4212
2016-07-09T04:33:20.615Z,4416
2016-07-09T04:34:20.597Z,4628
2016-07-09T04:35:20.580Z,4696
2016-07-09T04:36:20.559Z,4732
2016-07-09T04:37:20.539Z,4784
2016-07-09T04:38:20.538Z,4684
2016-07-09T04:39:20.506Z,4612
2016-07-09T04:40:20.483Z,4680
2016-07-09T04:41:20.466Z,4860
2016-07-09T04:42:20.454Z,5016
2016-07-09T04:43:20.433Z,4976
2016-07-09T04:44:20.409Z,4892
2016-07-09T04:45:20.406Z,4972
2016-07-09T04:46:20.375Z,5060
2016-07-09T04:47:20.356Z,5112
2016-07-09T04:48:20.341Z,5112
2016-07-09T04:49:20.318Z,4940
2016-07-09T04:50:20.304Z,4756
2016-07-09T04:51:20.284Z,4720
2016-07-09T04:52:20.263Z,4904
2016-07-09T04:53:20.260Z,4968
2016-07-09T04:54:20.232Z,5060
2016-07-09T04:55:20.209Z,5212
2016-07-09T04:56:20.194Z,5240
2016-07-09T04:57:20.172Z,5360
2016-07-09T04:58:20.154Z,5600
2016-07-09T04:59:20.136Z,5684
2016-07-09T05:00:20.118Z,5688
2016-07-09T05:01:20.102Z,5828
2016-07-09T05:02:20.092Z,6064
2016-07-09T05:03:20.067Z,6212
2016-07-09T05:04:20.048Z,6352
2016-07-09T05:05:20.030Z,6580
2016-07-09T05:06:20.010Z,6640
2016-07-09T05:07:19.992Z,6648
2016-07-09T05:08:19.978Z,6816
2016-07-09T05:09:19.964Z,7096
2016-07-09T05:10:19.940Z,7216
2016-07-09T05:11:19.923Z,7240
2016-07-09T05:12:19.905Z,7392
2016-07-09T05:13:19.887Z,7488
2016-07-09T05:14:19.872Z,7492
2016-07-09T05:15:20.452Z,7552
2016-07-09T05:16:20.581Z,7708
2016-07-09T05:17:19.819Z,7952
2016-07-09T05:18:19.802Z,8156
2016-07-09T05:19:19.780Z,8592
2016-07-09T05:20:19.764Z,8944
2016-07-09T05:21:19.742Z,9128
2016-07-09T05:22:19.729Z,9328
2016-07-09T05:23:19.713Z,9136
2016-07-09T05:24:19.698Z,8884
2016-07-09T05:25:19.675Z,8888
2016-07-09T05:26:19.665Z,9132
2016-07-09T05:27:19.640Z,9532
2016-07-09T05:28:19.621Z,9884
2016-07-09T05:29:19.611Z,10056
2016-07-09T05:30:19.597Z,10008
2016-07-09T05:31:19.569Z,9932
2016-07-09T05:32:19.567Z,10140
2016-07-09T05:33:19.538Z,10100
2016-07-09T05:34:19.517Z,10052
2016-07-09T05:35:19.505Z,10208
2016-07-09T05:36:19.487Z,10228
2016-07-09T05:37:19.471Z,10220
2016-07-09T05:38:19.449Z,9996
2016-07-09T05:39:19.438Z,9772
2016-07-09T05:40:19.428Z,9780
2016-07-09T05:41:19.404Z,10108
2016-07-09T05:42:19.385Z,10476
2016-07-09T05:43:19.368Z,10472
2016-07-09T05:44:19.349Z,10476
2016-07-09T05:45:19.935Z,10268
2016-07-09T05:46:19.329Z,10820
2016-07-09T05:47:19.300Z,11292
2016-07-09T05:48:19.285Z,11276
2016-07-09T05:49:19.271Z,11088
2016-07-09T05:50:19.252Z,11076
2016-07-09T05:51:19.230Z,11520
2016-07-09T05:52:19.220Z,11852
2016-07-09T05:53:19.201Z,11980
2016-07-09T05:54:19.185Z,12232
2016-07-09T05:55:19.168Z,12656
2016-07-09T05:56:19.153Z,12780
2016-07-09T05:57:19.136Z,12768
2016-07-09T05:58:19.114Z,12928
2016-07-09T05:59:19.102Z,13076
2016-07-09T06:00:19.084Z,13252
2016-07-09T06:01:19.073Z,13248
2016-07-09T06:02:19.055Z,13328
2016-07-09T06:03:19.037Z,13628
2016-07-09T06:04:19.012Z,13740
2016-07-09T06:05:18.999Z,13424
2016-07-09T06:06:18.985Z,12800
2016-07-09T06:07:18.963Z,12648
2016-07-09T06:08:18.951Z,12772
2016-07-09T06:09:18.934Z,12772
2016-07-09T06:10:18.919Z,12640
2016-07-09T06:11:18.903Z,12456
2016-07-09T06:12:18.886Z,12300
2016-07-09T06:13:18.869Z,11316
2016-07-09T06:14:18.863Z,11396
2016-07-09T06:15:18.835Z,12144
2016-07-09T06:16:18.823Z,12332
2016-07-09T06:17:18.808Z,12212
2016-07-09T06:18:18.791Z,12428
2016-07-09T06:19:18.770Z,12968
2016-07-09T06:20:18.758Z,13012
2016-07-09T06:21:18.743Z,12924
2016-07-09T06:22:19.324Z,12720
2016-07-09T06:23:18.707Z,13084
2016-07-09T06:24:18.700Z,14160
2016-07-09T06:25:18.679Z,15452
2016-07-09T06:26:18.661Z,15928
2016-07-09T06:27:18.646Z,16384
2016-07-09T06:28:18.634Z,16624
2016-07-09T06:29:18.612Z,16740
2016-07-09T06:30:18.597Z,17440
2016-07-09T06:31:18.589Z,18304
2016-07-09T06:32:18.563Z,18400
2016-07-09T06:33:18.551Z,18048
2016-07-09T06:34:18.540Z,18432
2016-07-09T06:35:18.521Z,19744
2016-07-09T06:36:18.521Z,24544
2016-07-09T06:37:18.492Z,20512
2016-07-09T06:38:18.474Z,21888
2016-07-09T06:39:18.464Z,23008
2016-07-09T06:40:18.449Z,23296
2016-07-09T06:41:18.434Z,29024
2016-07-09T06:42:18.414Z,22336
2016-07-09T06:43:18.409Z,22048
2016-07-09T06:44:18.387Z,22368
2016-07-09T06:45:18.373Z,23008
2016-07-09T06:46:18.360Z,23200
2016-07-09T06:47:18.351Z,23552
2016-07-09T06:48:18.328Z,23392
2016-07-09T06:49:18.315Z,22880
2016-07-09T06:50:18.299Z,22624
2016-07-09T06:51:18.287Z,22464
2016-07-09T06:52:18.272Z,22944
2016-07-09T06:53:18.256Z,22496
2016-07-09T06:54:18.246Z,22880
2016-07-09T06:55:18.229Z,22816
2016-07-09T06:56:18.227Z,23680
2016-07-09T06:57:18.207Z,23680
2016-07-09T06:58:18.191Z,25024
2016-07-09T06:59:18.177Z,24992
2016-07-09T07:00:18.166Z,24768
2016-07-09T07:01:18.160Z,25440
2016-07-09T07:02:18.132Z,32768
2016-07-09T07:03:18.122Z,26528
2016-07-09T07:04:18.110Z,26560
2016-07-09T07:05:18.093Z,39360
2016-07-09T07:06:18.082Z,24640
2016-07-09T07:07:18.064Z,25824
2016-07-09T07:08:18.054Z,24672
2016-07-09T07:09:18.043Z,28928
2016-07-09T07:10:18.027Z,23968
2016-07-09T07:11:18.019Z,24384
2016-07-09T07:12:18.008Z,23392
2016-07-09T07:13:17.982Z,22880
2016-07-09T07:14:17.973Z,22336
2016-07-09T07:15:17.962Z,22240
2016-07-09T07:16:17.945Z,23008
2016-07-09T07:17:17.935Z,23904
2016-07-09T07:18:17.919Z,25056
2016-07-09T07:19:17.908Z,26016
2016-07-09T07:20:17.896Z,25792
2016-07-09T07:21:17.877Z,25568
2016-07-09T07:22:17.870Z,27456
2016-07-09T07:23:17.850Z,25632
2016-07-09T07:24:17.834Z,26688
2016-07-09T07:25:17.828Z,28640
2016-07-09T07:26:17.812Z,29600
2016-07-09T07:27:17.803Z,30016
2016-07-09T07:28:17.784Z,31136
2016-07-09T07:29:17.774Z,30624
2016-07-09T07:30:17.758Z,33920
2016-07-09T07:31:17.743Z,31008
2016-07-09T07:32:17.728Z,30720
2016-07-09T07:33:17.721Z,30528
2016-07-09T07:34:17.703Z,29888
2016-07-09T07:35:17.691Z,29632
2016-07-09T07:36:17.680Z,29344
2016-07-09T07:37:17.664Z,29760
2016-07-09T07:38:17.664Z,30080
2016-07-09T07:39:17.640Z,30848
2016-07-09T07:40:17.625Z,29408
2016-07-09T07:41:17.618Z,29888
2016-07-09T07:42:17.606Z,31936
2016-07-09T07:43:17.589Z,36512
2016-07-09T07:44:17.581Z,33920
2016-07-09T07:45:17.562Z,31936
2016-07-09T07:46:17.549Z,67552
2016-07-09T07:47:17.539Z,31552
2016-07-09T07:48:17.531Z,30784
2016-07-09T07:49:17.517Z,30208
2016-07-09T07:50:17.514Z,34464
2016-07-09T07:51:17.494Z,32448
2016-07-09T07:52:17.478Z,29952
2016-07-09T07:53:17.469Z,32832
2016-07-09T07:54:17.455Z,34784
2016-07-09T07:55:17.443Z,40800
2016-07-09T07:56:17.438Z,31104
2016-07-09T07:57:17.422Z,34176
2016-07-09T07:58:17.407Z,39616
2016-07-09T07:59:17.399Z,33728
2016-07-09T08:00:17.386Z,32032
2016-07-09T08:01:17.371Z,27520
2016-07-09T08:02:17.364Z,28544
2016-07-09T08:03:17.352Z,27488
2016-07-09T08:04:17.339Z,28608
2016-07-09T08:05:17.324Z,33088
2016-07-09T08:06:17.311Z,36000
2016-07-09T08:07:17.305Z,81696
2016-07-09T08:08:17.287Z,82016
2016-07-09T08:09:17.279Z,71840
2016-07-09T08:10:17.266Z,37824
2016-07-09T08:11:17.257Z,26880
2016-07-09T08:12:17.246Z,28512
2016-07-09T08:13:17.230Z,59552
2016-07-09T08:14:17.224Z,69568
2016-07-09T08:15:17.222Z,69408
2016-07-09T08:16:17.201Z,69440
2016-07-09T08:17:17.206Z,69216
2016-07-09T08:18:17.183Z,66496
2016-07-09T08:19:17.170Z,69312
2016-07-09T08:20:17.176Z,56128
2016-07-09T08:21:17.156Z,69376
2016-07-09T08:22:17.145Z,66144
2016-07-09T08:23:17.134Z,72768
2016-07-09T08:24:17.132Z,73248
2016-07-09T08:25:17.117Z,71072
2016-07-09T08:26:17.110Z,67968
2016-07-09T08:27:17.103Z,70976
2016-07-09T08:28:17.098Z,71808
2016-07-09T08:29:17.090Z,73408
2016-07-09T08:30:17.080Z,76480
2016-07-09T08:31:17.076Z,77248
2016-07-09T08:32:17.071Z,44672
2016-07-09T08:33:17.059Z,34656
2016-07-09T08:34:17.070Z,56064
2016-07-09T08:35:17.050Z,73696
2016-07-09T08:36:17.042Z,80512
2016-07-09T08:37:17.039Z,63584
2016-07-09T08:38:17.029Z,41536
2016-07-09T08:39:17.024Z,37824
2016-07-09T08:40:17.022Z,58080
2016-07-09T08:41:17.013Z,48896
2016-07-09T08:42:17.005Z,42464
2016-07-09T08:43:17.002Z,52480
2016-07-09T08:44:16.995Z,43136
2016-07-09T08:45:16.989Z,88544
2016-07-09T08:46:16.979Z,87200
2016-07-09T08:47:16.974Z,64224
2016-07-09T08:48:16.968Z,90272
2016-07-09T08:49:16.964Z,41440
2016-07-09T08:50:16.952Z,49728
2016-07-09T08:51:16.956Z,96800
2016-07-09T08:52:16.948Z,60224
2016-07-09T08:53:16.941Z,35808
2016-07-09T08:54:16.931Z,37760
2016-07-09T08:55:16.928Z,37184
2016-07-09T08:56:16.920Z,38592
2016-07-09T08:57:16.916Z,39520
2016-07-09T08:58:16.911Z,43840
2016-07-09T08:59:16.902Z,45600
2016-07-09T09:00:16.899Z,46912
2016-07-09T09:01:16.894Z,43392
2016-07-09T09:02:16.887Z,43104
2016-07-09T09:03:16.880Z,30528
2016-07-09T09:04:16.872Z,26112
2016-07-09T09:05:16.864Z,27552
2016-07-09T09:06:16.862Z,83840
2016-07-09T09:07:16.857Z,85728
2016-07-09T09:08:16.863Z,84896
2016-07-09T09:09:16.833Z,81792
2016-07-09T09:10:16.829Z,86336
2016-07-09T09:11:16.823Z,86080
2016-07-09T09:12:16.811Z,86048
2016-07-09T09:13:16.809Z,89536
2016-07-09T09:14:16.800Z,88352
2016-07-09T09:15:16.793Z,36896
2016-07-09T09:16:16.790Z,34528
2016-07-09T09:17:16.782Z,38656
2016-07-09T09:18:16.776Z,32672
2016-07-09T09:19:16.776Z,35168
2016-07-09T09:20:16.766Z,86400
2016-07-09T09:21:16.770Z,90784
2016-07-09T09:22:16.752Z,59872
2016-07-09T09:23:16.756Z,66880
2016-07-09T09:24:16.743Z,30304
2016-07-09T09:25:16.736Z,31488
2016-07-09T09:26:16.726Z,29472
2016-07-09T09:27:16.727Z,27904
2016-07-09T09:28:16.714Z,44768
2016-07-09T09:29:16.712Z,38272
2016-07-09T09:30:16.706Z,43936
2016-07-09T09:31:16.704Z,48672
2016-07-09T09:32:16.693Z,23264
2016-07-09T09:33:16.686Z,19008
2016-07-09T09:34:16.672Z,15536
2016-07-09T09:35:16.669Z,13716
2016-07-09T09:36:16.659Z,13032
2016-07-09T09:37:16.654Z,13288
2016-07-09T09:38:16.643Z,14688
2016-07-09T09:39:16.633Z,17176
2016-07-09T09:40:16.623Z,24256
2016-07-09T09:41:16.611Z,88896
2016-07-09T09:42:16.604Z,90240
2016-07-09T09:43:16.598Z,88800
2016-07-09T09:44:16.585Z,89728
2016-07-09T09:45:16.583Z,89568
2016-07-09T09:46:16.578Z,48384
2016-07-09T09:47:16.569Z,44224
2016-07-09T09:48:16.554Z,58144
2016-07-09T09:49:16.548Z,33824
2016-07-09T09:50:16.539Z,82112
2016-07-09T09:51:16.531Z,29952
2016-07-09T09:52:16.526Z,83584
2016-07-09T09:53:16.518Z,95744
2016-07-09T09:54:16.511Z,93792
2016-07-09T09:55:16.519Z,90048
2016-07-09T09:56:16.541Z,25536
2016-07-09T09:57:16.491Z,22880
2016-07-09T09:58:16.486Z,25248
2016-07-09T09:59:16.480Z,39648
2016-07-09T10:00:16.473Z,34752
2016-07-09T10:01:16.470Z,35040
2016-07-09T10:02:16.459Z,34624
2016-07-09T10:03:16.451Z,100288
2016-07-09T10:04:16.450Z,96192
2016-07-09T10:05:16.438Z,100672
2016-07-09T10:06:16.430Z,102432
2016-07-09T10:07:16.430Z,99904
2016-07-09T10:08:16.424Z,97792
2016-07-09T10:09:16.416Z,97696
2016-07-09T10:10:16.415Z,97344
2016-07-09T10:11:16.458Z,98720
2016-07-09T10:12:16.404Z,98560
2016-07-09T10:13:16.395Z,95968
2016-07-09T10:14:16.495Z,75808
2016-07-09T10:15:16.390Z,40160
2016-07-09T10:16:18.363Z,81184
2016-07-09T10:17:16.380Z,97664
2016-07-09T10:18:16.392Z,34176
2016-07-09T10:19:16.374Z,97088
2016-07-09T10:20:16.369Z,97984
2016-07-09T10:21:16.369Z,103840
2016-07-09T10:22:16.368Z,27840
2016-07-09T10:23:16.359Z,26816
2016-07-09T10:24:16.359Z,26688
2016-07-09T10:25:16.366Z,28384
2016-07-09T10:26:16.350Z,31456
2016-07-09T10:27:16.350Z,77824
2016-07-09T10:28:16.345Z,43424
2016-07-09T10:29:16.336Z,32096
2016-07-09T10:30:16.335Z,30464
2016-07-09T10:31:16.326Z,34592
2016-07-09T10:32:16.322Z,70112
2016-07-09T10:33:16.320Z,44416
2016-07-09T10:34:16.309Z,32640
2016-07-09T10:35:16.304Z,96672
2016-07-09T10:36:16.299Z,102560
2016-07-09T10:37:16.300Z,101280
2016-07-09T10:38:16.290Z,68608
2016-07-09T10:39:16.285Z,99296
2016-07-09T10:40:16.306Z,33952
2016-07-09T10:41:16.278Z,29920
2016-07-09T10:42:16.273Z,28288
2016-07-09T10:43:16.266Z,31296
2016-07-09T10:44:16.261Z,93184
2016-07-09T10:45:16.251Z,88352
2016-07-09T10:46:16.250Z,90336
2016-07-09T10:47:16.244Z,94560
2016-07-09T10:48:16.243Z,87456
2016-07-09T10:49:16.235Z,91648
2016-07-09T10:50:16.230Z,88896
2016-07-09T10:51:16.230Z,84864
2016-07-09T10:52:16.226Z,89408
2016-07-09T10:53:16.222Z,33184
2016-07-09T10:54:16.221Z,32448
2016-07-09T10:55:16.210Z,29600
2016-07-09T10:56:16.206Z,50336
2016-07-09T10:57:16.202Z,27232
2016-07-09T10:58:16.196Z,33472
2016-07-09T10:59:16.190Z,21568
2016-07-09T11:00:16.191Z,20448
2016-07-09T11:01:16.182Z,22464
2016-07-09T11:02:16.173Z,28416
2016-07-09T11:03:16.168Z,69760
2016-07-09T11:04:16.172Z,27744
2016-07-09T11:05:16.154Z,23520
2016-07-09T11:06:16.150Z,21056
2016-07-09T11:07:16.144Z,21472
2016-07-09T11:08:16.137Z,25248
2016-07-09T11:09:16.128Z,28416
2016-07-09T11:10:16.129Z,95840
2016-07-09T11:11:16.114Z,32608
2016-07-09T11:12:16.107Z,27968
2016-07-09T11:13:16.098Z,31808
2016-07-09T11:14:16.085Z,40000
2016-07-09T11:15:16.082Z,37792
2016-07-09T11:16:16.070Z,31520
2016-07-09T11:17:16.066Z,69792
2016-07-09T11:18:16.055Z,111456
2016-07-09T11:19:16.645Z,83936
2016-07-09T11:20:16.040Z,101120
2016-07-09T11:21:16.029Z,41376
2016-07-09T11:22:16.025Z,82976
2016-07-09T11:23:16.017Z,112672
2016-07-09T11:24:16.006Z,100256
2016-07-09T11:25:16.011Z,94752
2016-07-09T11:26:15.997Z,66528
2016-07-09T11:27:15.988Z,102688
2016-07-09T11:28:15.984Z,42496
2016-07-09T11:29:15.982Z,110080
2016-07-09T11:30:15.970Z,110816
2016-07-09T11:31:15.968Z,101632
2016-07-09T11:32:15.959Z,83200
2016-07-09T11:33:15.956Z,101632
2016-07-09T11:34:15.953Z,104480
2016-07-09T11:35:15.950Z,103328
2016-07-09T11:36:15.942Z,101696
2016-07-09T11:37:15.954Z,103296
2016-07-09T11:38:15.937Z,99360
2016-07-09T11:39:15.932Z,100832
2016-07-09T11:40:15.934Z,100864
2016-07-09T11:41:16.531Z,104576
2016-07-09T11:42:15.933Z,64928
2016-07-09T11:43:16.027Z,30208
2016-07-09T11:44:15.924Z,27008
2016-07-09T11:45:15.926Z,24576
2016-07-09T11:46:15.917Z,24064
2016-07-09T11:47:15.920Z,24864
2016-07-09T11:48:15.913Z,27456
2016-07-09T11:49:15.911Z,30592
2016-07-09T11:50:15.906Z,32928
2016-07-09T11:51:15.896Z,37472
2016-07-09T11:52:15.895Z,40000
2016-07-09T11:53:15.892Z,78304
2016-07-09T11:54:16.480Z,104960
2016-07-09T11:55:15.877Z,59904
2016-07-09T11:56:15.879Z,37184
2016-07-09T11:57:15.866Z,28640
2016-07-09T11:58:15.860Z,24160
2016-07-09T11:59:15.859Z,25184
2016-07-09T12:00:15.849Z,22848
2016-07-09T12:01:15.841Z,24352
2016-07-09T12:02:15.840Z,26208
2016-07-09T12:03:15.831Z,28096
2016-07-09T12:04:15.821Z,28512
2016-07-09T12:05:15.817Z,28576
2016-07-09T12:06:15.806Z,29088
2016-07-09T12:07:15.803Z,29824
2016-07-09T12:08:15.795Z,31040
2016-07-09T12:09:15.783Z,33344
2016-07-09T12:10:15.785Z,34592
2016-07-09T12:11:15.765Z,33952
2016-07-09T12:12:15.761Z,33184
2016-07-09T12:13:15.755Z,32064
2016-07-09T12:14:15.742Z,31424
2016-07-09T12:15:15.746Z,30880
2016-07-09T12:16:15.733Z,30912
2016-07-09T12:17:15.717Z,30624
2016-07-09T12:18:15.705Z,30144
2016-07-09T12:19:15.700Z,30688
2016-07-09T12:20:15.692Z,33536
2016-07-09T12:21:15.682Z,91008
2016-07-09T12:22:15.678Z,91296
2016-07-09T12:23:15.667Z,67424
2016-07-09T12:24:15.651Z,34816
2016-07-09T12:25:15.648Z,32032
2016-07-09T12:26:15.641Z,33344
2016-07-09T12:27:15.639Z,94816
2016-07-09T12:28:15.621Z,39008
2016-07-09T12:29:15.613Z,36032
2016-07-09T12:30:15.614Z,34592
2016-07-09T12:31:15.908Z,32224
2016-07-09T12:32:15.589Z,29312
2016-07-09T12:33:15.590Z,26944
2016-07-09T12:34:15.582Z,26240
2016-07-09T12:35:15.566Z,24992
2016-07-09T12:36:15.565Z,22272
2016-07-09T12:37:15.548Z,21024
2016-07-09T12:38:15.538Z,20096
2016-07-09T12:39:15.537Z,19808
2016-07-09T12:40:15.524Z,20768
2016-07-09T12:41:15.513Z,21440
2016-07-09T12:42:15.509Z,22048
2016-07-09T12:43:15.494Z,22560
2016-07-09T12:44:15.485Z,22880
2016-07-09T12:45:15.478Z,23680
2016-07-09T12:46:15.464Z,24928
2016-07-09T12:47:15.844Z,26112
2016-07-09T12:48:15.456Z,28128
2016-07-09T12:49:15.433Z,31488
2016-07-09T12:50:15.434Z,37568
2016-07-09T12:51:15.416Z,57888
2016-07-09T12:52:15.417Z,55264
2016-07-09T12:53:15.998Z,67168
2016-07-09T12:54:15.427Z,65888
2016-07-09T12:55:15.386Z,34432
2016-07-09T12:56:15.365Z,34336
2016-07-09T12:57:15.363Z,34400
2016-07-09T12:58:15.345Z,34688
2016-07-09T12:59:15.339Z,35904
2016-07-09T13:00:15.332Z,38208
2016-07-09T13:01:15.325Z,40608
2016-07-09T13:02:15.308Z,44000
2016-07-09T13:03:15.306Z,65312
2016-07-09T13:04:15.296Z,60416
2016-07-09T13:05:15.281Z,60576
2016-07-09T13:06:15.273Z,70720
2016-07-09T13:07:15.275Z,51648
2016-07-09T13:08:15.254Z,49440
2016-07-09T13:09:15.255Z,97248
2016-07-09T13:10:15.243Z,86112
2016-07-09T13:11:15.233Z,92192
2016-07-09T13:12:15.233Z,91872
2016-07-09T13:13:15.228Z,74528
2016-07-09T13:14:15.215Z,44512
2016-07-09T13:15:15.208Z,57312
2016-07-09T13:16:15.200Z,86272
2016-07-09T13:17:15.196Z,87008
2016-07-09T13:18:15.190Z,86688
2016-07-09T13:19:15.179Z,77856
2016-07-09T13:20:15.185Z,83488
2016-07-09T13:21:15.178Z,85664